createdAt,value
2023-11-28T07:50:57.803Z,97427.64
2023-11-28T07:53:24.639Z,97427.80
2023-11-28T07:55:51.631Z,97428.01
2023-11-28T07:58:19.869Z,97432.34
2023-11-28T08:00:46.815Z,97433.87
2023-11-28T08:03:13.760Z,97428.66
2023-11-28T08:05:42.367Z,97428.21
2023-11-28T08:08:09.297Z,97430.91
2023-11-28T08:10:36.243Z,97428.02
2023-11-28T08:13:04.388Z,97431.37
2023-11-28T08:15:31.265Z,97434.66
2023-11-28T08:17:58.110Z,97431.41
2023-11-28T08:20:26.373Z,97425.39
2023-11-28T08:22:53.337Z,97424.40
2023-11-28T08:25:20.173Z,97422.02
2023-11-28T08:27:48.734Z,97425.20
2023-11-28T08:30:15.803Z,97424.13
2023-11-28T08:32:42.824Z,97422.44
2023-11-28T08:35:11.074Z,97421.59
2023-11-28T08:37:38.135Z,97419.76
2023-11-28T08:40:05.002Z,97419.15
2023-11-28T08:42:33.065Z,97419.73
2023-11-28T08:44:59.912Z,97421.80
2023-11-28T08:47:26.928Z,97422.38
2023-11-28T08:49:55.242Z,97420.47
2023-11-28T08:52:22.375Z,97424.23
2023-11-28T08:54:49.325Z,97424.78
2023-11-28T08:57:17.484Z,97424.88
2023-11-28T08:59:44.464Z,97430.09
2023-11-28T09:02:11.612Z,97433.30
2023-11-28T09:04:40.293Z,97430.58
2023-11-28T09:07:07.313Z,97431.93
2023-11-28T09:09:34.572Z,97431.17
2023-11-28T09:12:02.755Z,97432.17
2023-11-28T09:14:29.782Z,97435.42
2023-11-28T09:16:56.884Z,97433.19
2023-11-28T09:19:25.211Z,97436.28
2023-11-28T09:21:52.059Z,97435.31
2023-11-28T09:24:19.035Z,97435.95
2023-11-28T09:26:47.290Z,97436.58
2023-11-28T09:29:14.350Z,97441.41
2023-11-28T09:31:41.677Z,97442.08
2023-11-28T09:34:09.958Z,97443.29
2023-11-28T09:36:36.817Z,97445.66
2023-11-28T09:39:03.859Z,97447.70
2023-11-28T09:41:39.595Z,97442.52
2023-11-28T09:44:11.915Z,97441.36
2023-11-28T09:46:39.023Z,97434.91
2023-11-28T09:49:06.055Z,97430.33
2023-11-28T09:51:34.471Z,97423.48
2023-11-28T09:54:01.296Z,97417.31
2023-11-28T09:56:28.363Z,97409.55
2023-11-28T09:58:56.627Z,97406.81
2023-11-28T10:01:23.692Z,97407.20
2023-11-28T10:03:50.754Z,97407.72
2023-11-28T10:06:18.970Z,97409.27
2023-11-28T10:08:45.813Z,97416.77
2023-11-28T10:11:12.787Z,97414.84
2023-11-28T10:13:41.263Z,97415.33
2023-11-28T10:16:08.180Z,97414.73
2023-11-28T10:18:34.838Z,97408.97
2023-11-28T10:21:03.100Z,97411.05
2023-11-28T10:23:29.968Z,97413.38
2023-11-28T10:25:57.001Z,97417.52
2023-11-28T10:28:25.153Z,97416.98
2023-11-28T10:30:54.181Z,97417.38
2023-11-28T10:33:23.760Z,97419.99
2023-11-28T10:35:50.710Z,97413.27
2023-11-28T10:38:17.918Z,97412.30
2023-11-28T10:40:46.374Z,97413.59
2023-11-28T10:43:13.281Z,97415.58
2023-11-28T10:45:40.220Z,97417.29
2023-11-28T10:48:09.822Z,97418.25
2023-11-28T10:50:38.216Z,97415.23
2023-11-28T10:53:07.412Z,97414.76
2023-11-28T10:55:34.306Z,97413.91
2023-11-28T10:58:01.408Z,97409.56
2023-11-28T11:00:29.463Z,97404.50
2023-11-28T11:02:56.507Z,97407.27
2023-11-28T11:05:23.503Z,97404.17
2023-11-28T11:07:51.660Z,97403.77
2023-11-28T11:10:18.475Z,97407.40
2023-11-28T11:12:45.414Z,97404.13
2023-11-28T11:15:13.499Z,97408.48
2023-11-28T11:17:40.448Z,97405.23
2023-11-28T11:20:07.612Z,97405.92
2023-11-28T11:22:35.755Z,97402.49
2023-11-28T11:25:02.674Z,97407.63
2023-11-28T11:27:29.566Z,97403.91
2023-11-28T11:29:57.845Z,97400.46
2023-11-28T11:32:24.815Z,97400.39
2023-11-28T11:34:51.929Z,97400.31
2023-11-28T11:37:20.113Z,97398.81
2023-11-28T11:39:47.153Z,97398.01
2023-11-28T11:42:14.489Z,97400.20
2023-11-28T11:44:42.554Z,97399.52
2023-11-28T11:47:09.550Z,97405.08
2023-11-28T11:49:36.442Z,97411.28
2023-11-28T11:52:04.515Z,97417.56
2023-11-28T11:54:31.464Z,97421.34
2023-11-28T11:56:58.299Z,97428.61
2023-11-28T11:59:26.485Z,97437.33
2023-11-28T12:01:53.504Z,97440.58
2023-11-28T12:04:20.939Z,97440.20
2023-11-28T12:06:49.255Z,97444.94
2023-11-28T12:09:16.202Z,97445.00
2023-11-28T12:11:43.039Z,97438.35
2023-11-28T12:14:11.244Z,97439.59
2023-11-28T12:16:38.181Z,97448.27
2023-11-28T12:19:05.117Z,97447.23
2023-11-28T12:21:33.175Z,97450.09
2023-11-28T12:24:00.136Z,97451.58
2023-11-28T12:26:27.290Z,97453.36
2023-11-28T12:28:55.569Z,97452.65
2023-11-28T12:31:22.405Z,97453.61
2023-11-28T12:33:49.335Z,97457.98
2023-11-28T12:36:17.501Z,97460.17
2023-11-28T12:38:44.655Z,97462.48
2023-11-28T12:41:15.639Z,97470.32
2023-11-28T12:43:44.310Z,97472.91
2023-11-28T12:46:11.154Z,97476.91
2023-11-28T12:48:37.890Z,97480.16
2023-11-28T12:51:06.049Z,97485.53
2023-11-28T12:53:32.974Z,97485.98
2023-11-28T12:55:59.953Z,97484.67
2023-11-28T12:58:28.095Z,97484.83
2023-11-28T13:00:55.047Z,97484.88
2023-11-28T13:03:21.935Z,97488.27
2023-11-28T13:05:50.162Z,97495.36
2023-11-28T13:08:17.082Z,97495.28
2023-11-28T13:10:44.045Z,97497.52
2023-11-28T13:13:17.525Z,97500.24
2023-11-28T13:15:45.343Z,97502.93
2023-11-28T13:18:13.577Z,97502.73
2023-11-28T13:20:40.746Z,97505.23
2023-11-28T13:23:07.629Z,97506.92
2023-11-28T13:25:35.763Z,97514.23
2023-11-28T13:28:02.820Z,97514.37
2023-11-28T13:30:29.965Z,97521.11
2023-11-28T13:32:58.127Z,97526.63
2023-11-28T13:35:25.391Z,97529.52
2023-11-28T13:37:52.261Z,97532.24
2023-11-28T13:40:20.493Z,97536.87
2023-11-28T13:42:47.442Z,97538.90
2023-11-28T13:45:14.400Z,97539.67
2023-11-28T13:47:42.665Z,97541.89
2023-11-28T13:50:09.421Z,97545.19
2023-11-28T13:52:36.345Z,97550.13
2023-11-28T13:55:04.515Z,97556.00
2023-11-28T13:57:31.769Z,97557.11
2023-11-28T13:59:58.606Z,97558.19
2023-11-28T14:02:35.379Z,97558.98
2023-11-28T14:05:11.880Z,97559.09
2023-11-28T14:07:38.900Z,97561.20
2023-11-28T14:10:05.747Z,97574.19
2023-11-28T14:12:33.813Z,97576.33
2023-11-28T14:15:00.837Z,97580.25
2023-11-28T14:17:28.238Z,97580.57
2023-11-28T14:19:56.530Z,97580.39
2023-11-28T14:22:23.531Z,97583.23
2023-11-28T14:24:50.376Z,97586.17
2023-11-28T14:27:18.654Z,97591.84
2023-11-28T14:29:45.503Z,97593.89
2023-11-28T14:32:12.486Z,97598.47
2023-11-28T14:34:40.743Z,97601.30
2023-11-28T14:37:07.766Z,97601.23
2023-11-28T14:39:34.605Z,97604.17
2023-11-28T14:42:02.685Z,97604.36
2023-11-28T14:44:29.552Z,97610.06
2023-11-28T14:46:56.557Z,97617.58
2023-11-28T14:49:24.734Z,97624.48
2023-11-28T14:51:51.674Z,97625.84
2023-11-28T14:54:18.522Z,97624.13
2023-11-28T14:56:46.742Z,97621.41
2023-11-28T14:59:14.770Z,97630.98
2023-11-28T15:01:41.979Z,97636.15
2023-11-28T15:04:10.330Z,97641.20
2023-11-28T15:06:37.375Z,97648.77
2023-11-28T15:09:04.293Z,97652.19
2023-11-28T15:11:32.374Z,97661.87
2023-11-28T15:13:59.354Z,97667.70
2023-11-28T15:16:26.475Z,97673.45
2023-11-28T15:18:54.830Z,97672.75
2023-11-28T15:21:21.981Z,97676.84
2023-11-28T15:23:48.992Z,97679.11
2023-11-28T15:26:17.276Z,97680.33
2023-11-28T15:28:44.043Z,97689.20
2023-11-28T15:31:11.016Z,97688.98
2023-11-28T15:33:39.430Z,97695.69
2023-11-28T15:36:06.514Z,97696.65
2023-11-28T15:38:33.404Z,97698.63
2023-11-28T15:41:01.682Z,97702.89
2023-11-28T15:43:28.576Z,97708.12
2023-11-28T15:45:55.528Z,97712.27
2023-11-28T15:48:23.962Z,97720.85
2023-11-28T15:50:50.975Z,97721.41
2023-11-28T15:53:17.994Z,97729.19
2023-11-28T15:55:46.270Z,97732.68
2023-11-28T15:58:13.113Z,97743.10
2023-11-28T16:00:40.053Z,97743.50
2023-11-28T16:03:08.240Z,97745.92
2023-11-28T16:05:35.315Z,97748.30
2023-11-28T16:08:02.145Z,97751.21
2023-11-28T16:10:30.595Z,97755.80
2023-11-28T16:12:57.444Z,97759.74
2023-11-28T16:15:24.394Z,97762.55
2023-11-28T16:17:52.660Z,97769.25
2023-11-28T16:20:19.846Z,97773.30
2023-11-28T16:22:46.762Z,97779.84
2023-11-28T16:25:14.932Z,97782.80
2023-11-28T16:27:41.780Z,97786.27
2023-11-28T16:30:08.737Z,97788.81
2023-11-28T16:32:37.487Z,97796.90
2023-11-28T16:35:04.611Z,97797.89
2023-11-28T16:37:31.699Z,97801.73
2023-11-28T16:39:59.780Z,97801.63
2023-11-28T16:42:26.730Z,97803.16
2023-11-28T16:44:53.566Z,97806.76
2023-11-28T16:47:21.901Z,97808.64
2023-11-28T16:49:48.947Z,97817.73
2023-11-28T16:52:16.166Z,97818.23
2023-11-28T16:54:44.218Z,97823.62
2023-11-28T16:57:11.146Z,97830.94
2023-11-28T16:59:38.166Z,97837.15
2023-11-28T17:02:06.620Z,97840.63
2023-11-28T17:04:33.623Z,97848.80
2023-11-28T17:07:00.566Z,97851.61
2023-11-28T17:09:28.750Z,97855.59
2023-11-28T17:11:55.602Z,97864.02
2023-11-28T17:14:22.969Z,97864.10
2023-11-28T17:16:51.400Z,97871.27
2023-11-28T17:19:18.357Z,97878.05
2023-11-28T17:21:45.209Z,97885.91
2023-11-28T17:24:13.474Z,97886.25
2023-11-28T17:26:40.392Z,97893.39
2023-11-28T17:29:07.530Z,97899.72
2023-11-28T17:31:35.749Z,97899.37
2023-11-28T17:34:02.693Z,97905.65
2023-11-28T17:36:29.941Z,97908.36
2023-11-28T17:38:58.134Z,97908.88
2023-11-28T17:41:25.097Z,97915.34
2023-11-28T17:43:52.185Z,97917.60
2023-11-28T17:46:20.503Z,97922.45
2023-11-28T17:48:47.235Z,97925.70
2023-11-28T17:51:14.177Z,97932.33
2023-11-28T17:53:42.234Z,97936.20
2023-11-28T17:56:09.196Z,97944.50
2023-11-28T17:58:36.123Z,97950.44
2023-11-28T18:01:04.617Z,97958.49
2023-11-28T18:03:31.598Z,97960.77
2023-11-28T18:05:58.708Z,97959.09
2023-11-28T18:08:26.953Z,97964.90
2023-11-28T18:10:53.968Z,97972.25
2023-11-28T18:13:20.971Z,97978.77
2023-11-28T18:15:49.141Z,97983.11
2023-11-28T18:18:16.189Z,97986.39
2023-11-28T18:20:43.206Z,97992.86
2023-11-28T18:23:11.327Z,97999.23
2023-11-28T18:25:38.565Z,98010.71
2023-11-28T18:28:05.521Z,98009.21
2023-11-28T18:30:33.570Z,98014.54
2023-11-28T18:33:00.536Z,98023.28
2023-11-28T18:35:27.502Z,98032.05
2023-11-28T18:37:55.785Z,98034.80
2023-11-28T18:40:22.891Z,98041.47
2023-11-28T18:42:49.747Z,98043.53
2023-11-28T18:45:17.946Z,98048.44
2023-11-28T18:47:45.250Z,98050.94
2023-11-28T18:50:12.362Z,98051.08
2023-11-28T18:52:40.476Z,98050.91
2023-11-28T18:55:07.420Z,98060.84
2023-11-28T18:57:34.374Z,98063.78
2023-11-28T19:00:02.531Z,98066.06
2023-11-28T19:02:29.528Z,98076.02
2023-11-28T19:04:56.679Z,98080.63
2023-11-28T19:07:24.811Z,98086.26
2023-11-28T19:09:51.829Z,98093.41
2023-11-28T19:12:18.798Z,98095.59
2023-11-28T19:14:46.909Z,98097.98
2023-11-28T19:17:14.061Z,98099.21
2023-11-28T19:19:40.958Z,98105.75
2023-11-28T19:22:09.161Z,98110.06
2023-11-28T19:24:36.089Z,98115.40
2023-11-28T19:27:03.046Z,98116.44
2023-11-28T19:29:31.737Z,98118.84
2023-11-28T19:31:59.000Z,98120.17
2023-11-28T19:34:26.118Z,98123.92
2023-11-28T19:36:54.282Z,98126.32
2023-11-28T19:39:21.133Z,98129.92
2023-11-28T19:41:48.190Z,98135.58
2023-11-28T19:44:16.385Z,98136.47
2023-11-28T19:46:43.329Z,98142.95
2023-11-28T19:49:10.232Z,98148.38
2023-11-28T19:51:38.480Z,98152.14
2023-11-28T19:54:05.467Z,98155.58
2023-11-28T19:56:32.417Z,98154.23
2023-11-28T19:59:00.543Z,98157.11
2023-11-28T20:01:27.581Z,98165.77
2023-11-28T20:03:54.522Z,98169.08
2023-11-28T20:06:22.868Z,98177.13
2023-11-28T20:08:50.198Z,98176.80
2023-11-28T20:11:17.097Z,98181.72
2023-11-28T20:13:45.335Z,98185.67
2023-11-28T20:16:12.389Z,98187.92
2023-11-28T20:18:39.304Z,98187.30
2023-11-28T20:21:07.498Z,98198.80
2023-11-28T20:23:34.358Z,98198.81
2023-11-28T20:26:01.322Z,98202.20
2023-11-28T20:28:29.572Z,98202.23
2023-11-28T20:30:56.447Z,98203.63
2023-11-28T20:33:23.552Z,98206.53
2023-11-28T20:35:52.041Z,98209.59
2023-11-28T20:38:19.019Z,98210.80
2023-11-28T20:40:45.804Z,98215.95
2023-11-28T20:43:13.877Z,98219.35
2023-11-28T20:45:40.813Z,98223.29
2023-11-28T20:48:07.663Z,98226.86
2023-11-28T20:50:35.850Z,98230.25
2023-11-28T20:53:02.816Z,98236.73
2023-11-28T20:55:29.930Z,98245.11
2023-11-28T20:58:02.044Z,98247.70
2023-11-28T21:00:29.367Z,98247.04
2023-11-28T21:02:57.609Z,98251.09
2023-11-28T21:05:24.795Z,98253.77
2023-11-28T21:07:51.842Z,98253.26
2023-11-28T21:10:19.898Z,98256.65
2023-11-28T21:12:48.084Z,98256.27
2023-11-28T21:15:15.731Z,98262.73
2023-11-28T21:17:43.974Z,98265.33
2023-11-28T21:20:11.102Z,98268.90
2023-11-28T21:22:38.206Z,98269.96
2023-11-28T21:25:06.272Z,98272.89
2023-11-28T21:27:33.216Z,98273.55
2023-11-28T21:30:00.306Z,98277.63
2023-11-28T21:32:28.603Z,98286.33
2023-11-28T21:34:55.684Z,98294.02
2023-11-28T21:37:22.535Z,98297.63
2023-11-28T21:39:51.009Z,98303.95
2023-11-28T21:42:17.846Z,98309.23
2023-11-28T21:44:45.284Z,98315.58
2023-11-28T21:47:13.624Z,98312.36
2023-11-28T21:49:40.644Z,98317.82
2023-11-28T21:52:07.677Z,98319.69
2023-11-28T21:54:35.755Z,98324.31
2023-11-28T21:57:02.592Z,98332.35
2023-11-28T21:59:29.555Z,98339.55
2023-11-28T22:01:58.094Z,98343.30
2023-11-28T22:04:25.244Z,98350.80
2023-11-28T22:06:52.212Z,98355.77
2023-11-28T22:09:20.440Z,98359.38
2023-11-28T22:11:47.432Z,98365.00
2023-11-28T22:14:14.510Z,98367.02
2023-11-28T22:16:42.785Z,98372.30
2023-11-28T22:19:09.801Z,98374.70
2023-11-28T22:21:36.638Z,98378.14
2023-11-28T22:24:05.237Z,98380.02
2023-11-28T22:26:32.194Z,98387.55
2023-11-28T22:28:59.019Z,98392.52
2023-11-28T22:31:27.412Z,98396.64
2023-11-28T22:33:54.233Z,98400.03
2023-11-28T22:36:21.173Z,98399.52
2023-11-28T22:38:49.150Z,98400.00
2023-11-28T22:41:16.116Z,98400.85
2023-11-28T22:43:43.032Z,98403.92
2023-11-28T22:46:11.208Z,98410.05
2023-11-28T22:48:37.975Z,98421.98
2023-11-28T22:51:04.892Z,98423.02
2023-11-28T22:53:32.966Z,98427.13
2023-11-28T22:55:59.899Z,98431.59
2023-11-28T22:58:26.745Z,98438.23
2023-11-28T23:00:54.826Z,98439.24
2023-11-28T23:03:21.824Z,98441.61
2023-11-28T23:05:48.807Z,98445.82
2023-11-28T23:08:16.932Z,98453.98
2023-11-28T23:10:43.725Z,98457.23
2023-11-28T23:13:10.663Z,98456.07
2023-11-28T23:15:38.832Z,98454.91
2023-11-28T23:18:05.824Z,98459.02
2023-11-28T23:20:32.969Z,98459.37
2023-11-28T23:23:01.209Z,98470.61
2023-11-28T23:25:28.056Z,98471.27
2023-11-28T23:27:54.904Z,98476.68
2023-11-28T23:30:23.487Z,98475.13
2023-11-28T23:32:50.839Z,98478.52
2023-11-28T23:35:18.359Z,98478.70
2023-11-28T23:37:46.881Z,98481.79
2023-11-28T23:40:13.722Z,98485.89
2023-11-28T23:42:46.634Z,98488.79
2023-11-28T23:45:18.552Z,98492.40
2023-11-28T23:47:45.695Z,98495.16
2023-11-28T23:50:12.701Z,98499.61
2023-11-28T23:52:41.231Z,98503.86
2023-11-28T23:55:08.141Z,98504.36
2023-11-28T23:57:35.032Z,98506.40
